Time;durP1;ratioP1;P1;durP2;ratioP2;P2;SDS_P1;SDS_P2;PMS_P1;PMS_P2;Temp;Humidity;BMP_temperature;BMP_pressure;BME280_temperature;BME280_humidity;BME280_pressure;Samples;Min_cycle;Max_cycle;Signal;HPM_P1;HPM_P2
2023/11/03 00:02:08;;;;;;;1.27;0.65;;;;;;;6.88;100.00;97549.28;4980631;28;19985;-77
2023/11/03 00:04:36;;;;;;;0.77;0.63;;;;;;;6.90;100.00;97550.63;4977004;28;20018;-77
2023/11/03 00:07:04;;;;;;;0.82;0.82;;;;;;;6.93;100.00;97530.59;4953429;28;20050;-77
2023/11/03 00:09:33;;;;;;;1.00;0.65;;;;;;;6.95;100.00;97541.84;4954202;28;20100;-77
2023/11/03 00:11:59;;;;;;;0.98;0.60;;;;;;;6.95;100.00;97545.34;4955295;29;20126;-77
2023/11/03 00:14:24;;;;;;;;;;;;;;;6.96;100.00;97535.44;4958521;28;20110;-77
2023/11/03 00:16:50;;;;;;;1.77;0.80;;;;;;;6.98;100.00;97533.31;4973032;28;19918;-77
2023/11/03 00:19:15;;;;;;;;;;;;;;;7.02;100.00;97539.78;4969943;28;20023;-77
2023/11/03 00:21:40;;;;;;;0.90;0.63;;;;;;;7.02;100.00;97533.59;4953635;29;19969;-77
2023/11/03 00:24:06;;;;;;;;;;;;;;;7.06;100.00;97529.34;4953744;29;20612;-76
2023/11/03 00:26:32;;;;;;;0.52;0.38;;;;;;;7.10;100.00;97541.16;4954300;28;19922;-77
2023/11/03 00:28:58;;;;;;;;;;;;;;;7.16;100.00;97539.31;4969196;28;20538;-77
2023/11/03 00:31:23;;;;;;;0.73;0.55;;;;;;;7.18;100.00;97527.28;4973264;28;19918;-76
2023/11/03 00:33:49;;;;;;;;;;;;;;;7.21;100.00;97547.41;4973993;28;20043;-77
2023/11/03 00:36:15;;;;;;;1.13;0.80;;;;;;;7.23;100.00;97553.31;4971020;28;19945;-77
2023/11/03 00:38:44;;;;;;;2.70;0.73;;;;;;;7.26;100.00;97526.00;4973560;28;20034;-76
2023/11/03 00:41:14;;;;;;;0.88;0.88;;;;;;;7.28;100.00;97551.47;4966334;28;20031;-76
2023/11/03 00:43:41;;;;;;;3.42;0.70;;;;;;;7.27;100.00;97546.34;4953339;28;20061;-77
2023/11/03 00:46:07;;;;;;;1.52;0.77;;;;;;;7.32;100.00;97542.94;4963099;28;20046;-76
2023/11/03 00:48:32;;;;;;;;;;;;;;;7.30;100.00;97553.88;4956847;28;20022;-76
2023/11/03 00:50:57;;;;;;;1.37;0.60;;;;;;;7.33;100.00;97553.38;4961204;28;19918;-76
2023/11/03 00:53:23;;;;;;;;;;;;;;;7.31;100.00;97542.09;4970858;28;20057;-76
2023/11/03 00:55:48;;;;;;;1.83;0.90;;;;;;;7.36;100.00;97554.72;4962693;28;19925;-77
2023/11/03 00:58:16;;;;;;;0.52;0.52;;;;;;;7.36;100.00;97560.88;4967154;28;20035;-76
2023/11/03 01:00:42;;;;;;;2.10;1.55;;;;;;;7.37;100.00;97561.66;4963514;28;20027;-76
2023/11/03 01:03:07;;;;;;;;;;;;;;;7.43;100.00;97549.94;4974079;28;20063;-77
2023/11/03 01:05:33;;;;;;;0.70;0.70;;;;;;;7.45;100.00;97547.81;4968312;28;19922;-76
2023/11/03 01:07:58;;;;;;;;;;;;;;;7.49;100.00;97564.16;4971693;28;20371;-76
2023/11/03 01:10:24;;;;;;;2.42;0.80;;;;;;;7.46;100.00;97557.47;4970105;28;19924;-76
2023/11/03 01:12:50;;;;;;;;;;;;;;;7.53;100.00;97581.31;4967124;28;20027;-76
2023/11/03 01:15:21;;;;;;;3.75;1.10;;;;;;;7.53;100.00;97579.44;4983413;28;20330;-76
2023/11/03 01:17:50;;;;;;;2.20;0.70;;;;;;;7.57;99.41;97583.22;4963672;28;20110;-76
2023/11/03 01:20:19;;;;;;;1.15;0.75;;;;;;;7.65;98.09;97576.56;4963715;28;20038;-76
2023/11/03 01:22:52;;;;;;;1.70;0.95;;;;;;;7.67;98.21;97554.91;4971895;28;20026;-76
2023/11/03 01:25:18;;;;;;;1.83;1.00;;;;;;;7.71;97.82;97583.59;4961022;28;20041;-76
2023/11/03 01:27:46;;;;;;;;;;;;;;;7.71;98.13;97585.44;4966260;28;20023;-76
2023/11/03 01:30:12;;;;;;;1.13;0.88;;;;;;;7.72;97.50;97584.38;4964759;28;19925;-76
2023/11/03 01:32:37;;;;;;;1.55;0.90;;;;;;;7.72;97.41;97569.13;4974305;28;20027;-76
2023/11/03 01:35:03;;;;;;;;;;;;;;;7.73;97.75;97592.16;4973410;28;20035;-76
2023/11/03 01:37:28;;;;;;;1.48;0.90;;;;;;;7.72;98.06;97595.09;4969746;23;19926;-75
2023/11/03 01:39:53;;;;;;;;;;;;;;;7.74;96.73;97583.06;4965876;28;20030;-76
2023/11/03 01:42:19;;;;;;;2.92;0.90;;;;;;;7.77;96.29;97595.13;4948374;28;19953;-76
2023/11/03 01:44:44;;;;;;;;;;;;;;;7.78;96.36;97598.59;4970216;28;20043;-75
2023/11/03 01:47:10;;;;;;;1.90;0.80;;;;;;;7.77;96.18;97594.28;4962016;28;19922;-75
2023/11/03 01:49:35;;;;;;;1.05;0.70;;;;;;;7.76;96.51;97600.75;5477128;23;20038;-77
2023/11/03 01:52:01;;;;;;;;;;;;;;;7.70;95.67;97608.75;4955129;28;20399;-76
2023/11/03 01:54:26;;;;;;;1.25;0.80;;;;;;;7.67;96.33;97611.94;4972791;28;20390;-77
2023/11/03 01:56:52;;;;;;;;;;;;;;;7.65;97.64;97600.66;4955875;28;20559;-76
2023/11/03 01:59:18;;;;;;;0.93;0.90;;;;;;;7.64;98.05;97619.69;4973762;28;20461;-76
2023/11/03 02:01:45;;;;;;;2.58;0.80;;;;;;;7.52;98.91;97612.63;4940002;28;20035;-75
2023/11/03 02:04:10;;;;;;;1.10;0.70;;;;;;;7.60;97.63;97627.41;4975078;28;20061;-76
2023/11/03 02:06:35;;;;;;;;;;;;;;;7.51;99.72;97620.91;4968223;28;20028;-76
2023/11/03 02:09:01;;;;;;;1.65;0.70;;;;;;;7.50;99.25;97619.31;4966038;28;19918;-76
2023/11/03 02:11:28;;;;;;;;;;;;;;;7.44;100.00;97621.94;4965104;28;20376;-76
2023/11/03 02:13:53;;;;;;;1.55;0.80;;;;;;;7.38;100.00;97606.91;4954767;29;19929;-76
2023/11/03 02:16:19;;;;;;;;;;;;;;;7.31;100.00;97603.66;4972821;28;20027;-76
2023/11/03 02:18:45;;;;;;;1.57;0.90;;;;;;;7.23;100.00;97615.63;4956382;28;20064;-76
2023/11/03 02:21:14;;;;;;;1.40;0.80;;;;;;;7.23;100.00;97609.47;4965770;28;20046;-75
2023/11/03 02:23:40;;;;;;;1.13;0.80;;;;;;;7.15;100.00;97626.78;4964378;28;20039;-78
2023/11/03 02:26:05;;;;;;;;;;;;;;;7.18;100.00;97620.13;4976394;28;20037;-75
2023/11/03 02:28:31;;;;;;;0.80;0.70;;;;;;;7.14;100.00;97595.78;4973409;28;19918;-78
2023/11/03 02:30:56;;;;;;;;;;;;;;;7.17;100.00;97629.22;4995245;28;20149;-75
2023/11/03 02:33:21;;;;;;;1.87;0.90;;;;;;;7.13;100.00;97626.25;4988509;28;19902;-77
2023/11/03 02:35:49;;;;;;;;;;;;;;;7.18;100.00;97630.84;4973760;28;20097;-78
2023/11/03 02:38:17;;;;;;;1.83;1.00;;;;;;;7.19;100.00;97640.47;4972561;28;19925;-77
2023/11/03 02:40:46;;;;;;;2.25;0.90;;;;;;;7.19;100.00;97635.91;4974881;28;20023;-77
2023/11/03 02:43:12;;;;;;;2.28;0.95;;;;;;;7.21;100.00;97641.81;4974812;28;20049;-76
2023/11/03 02:45:37;;;;;;;;;;;;;;;7.26;100.00;97651.75;4973227;28;20089;-76
2023/11/03 02:48:02;;;;;;;1.38;0.95;;;;;;;7.29;100.00;97651.25;4967839;28;19925;-76
2023/11/03 02:50:28;;;;;;;;;;;;;;;7.32;100.00;97653.44;4979261;28;20548;-76
2023/11/03 02:52:54;;;;;;;3.97;0.97;;;;;;;7.34;100.00;97653.16;4977637;28;19914;-76
2023/11/03 02:55:20;;;;;;;1.55;0.85;;;;;;;7.37;99.87;97648.13;4966829;28;20030;-76
2023/11/03 02:57:45;;;;;;;;;;;;;;;7.49;98.49;97668.53;4973765;28;20072;-77
2023/11/03 03:00:12;;;;;;;3.33;0.83;;;;;;;7.52;98.10;97660.81;4965161;28;19961;-76
2023/11/03 03:02:38;;;;;;;1.50;1.02;;;;;;;7.53;97.43;97657.06;4947836;28;20302;-76
2023/11/03 03:05:03;;;;;;;;;;;;;;;7.58;97.13;97653.63;4967494;28;20464;-76
2023/11/03 03:07:29;;;;;;;1.60;0.60;;;;;;;7.63;96.64;97667.03;4973363;28;19972;-76
2023/11/03 03:09:54;;;;;;;;;;;;;;;7.63;96.04;97667.03;4984736;28;20379;-75
2023/11/03 03:12:19;;;;;;;2.17;0.70;;;;;;;7.70;94.91;97664.16;4974611;28;19921;-76
2023/11/03 03:14:45;;;;;;;1.45;0.98;;;;;;;7.68;95.45;97675.13;4972307;28;20023;-76
2023/11/03 03:17:12;;;;;;;;;;;;;;;7.77;94.47;97647.84;4965564;28;20047;-79
2023/11/03 03:19:38;;;;;;;2.67;0.93;;;;;;;7.77;94.29;97671.94;4968275;28;19941;-78
2023/11/03 03:22:03;;;;;;;;;;;;;;;7.82;93.40;97663.97;4967670;28;20041;-78
2023/11/03 03:24:28;;;;;;;1.13;0.73;;;;;;;7.86;92.68;97671.22;4967514;28;20432;-79
2023/11/03 03:26:54;;;;;;;1.38;0.90;;;;;;;7.86;92.77;97665.06;4975666;28;20060;-78
2023/11/03 03:29:19;;;;;;;;;;;;;;;7.91;91.90;97661.59;4963799;28;20162;-78
2023/11/03 03:31:44;;;;;;;0.70;0.70;;;;;;;7.92;92.57;97671.25;4974284;28;19945;-78
2023/11/03 03:34:11;;;;;;;3.20;0.90;;;;;;;7.92;91.88;97677.44;4977401;28;20035;-78
2023/11/03 03:36:39;;;;;;;3.33;0.82;;;;;;;7.93;92.42;97657.63;4974263;28;20038;-79
2023/11/03 03:39:05;;;;;;;1.40;0.77;;;;;;;7.98;91.17;97665.66;4974593;28;20029;-75
2023/11/03 03:41:30;;;;;;;4.40;1.10;;;;;;;7.92;91.45;97666.72;4972348;28;20027;-75
2023/11/03 03:43:55;;;;;;;;;;;;;;;7.97;91.83;97672.09;4966445;28;20439;-76
2023/11/03 03:46:21;;;;;;;2.10;1.00;;;;;;;7.97;91.01;97669.41;4960474;28;19922;-76
2023/11/03 03:48:46;;;;;;;5.50;1.23;;;;;;;7.94;91.72;97669.13;4958640;28;20497;-76
2023/11/03 03:51:11;;;;;;;;;;;;;;;7.93;91.10;97668.34;4953330;29;20059;-77
2023/11/03 03:53:36;;;;;;;1.87;0.83;;;;;;;7.96;90.88;97681.19;4955561;28;19942;-77
2023/11/03 03:56:03;;;;;;;2.10;0.80;;;;;;;7.97;91.48;97679.34;4964454;28;20545;-77
2023/11/03 03:58:28;;;;;;;2.13;0.95;;;;;;;7.97;91.56;97650.66;4969000;28;20038;-77
2023/11/03 04:00:57;;;;;;;2.83;1.20;;;;;;;8.02;90.89;97685.53;4974967;28;20023;-77
2023/11/03 04:03:26;;;;;;;2.45;1.13;;;;;;;7.98;90.66;97683.63;4976689;28;20472;-77
2023/11/03 04:05:52;;;;;;;1.67;1.00;;;;;;;7.95;92.39;97684.94;4978324;28;20026;-78
2023/11/03 04:08:17;;;;;;;2.17;0.90;;;;;;;7.95;91.79;97682.25;4978575;28;20029;-77
2023/11/03 04:10:43;;;;;;;;;;;;;;;7.99;90.65;97688.72;4969577;28;20122;-74
2023/11/03 04:13:10;;;;;;;2.87;1.20;;;;;;;8.00;91.03;97670.78;4954553;29;19914;-78
2023/11/03 04:15:38;;;;;;;2.05;1.20;;;;;;;7.98;90.50;97681.75;4970452;28;20325;-78
2023/11/03 04:18:03;;;;;;;1.08;0.90;;;;;;;8.00;91.85;97693.00;4964614;28;20027;-78
2023/11/03 04:20:30;;;;;;;1.42;0.80;;;;;;;7.96;92.03;97691.91;4955018;28;20043;-78
2023/11/03 04:22:55;;;;;;;1.05;0.95;;;;;;;7.93;91.21;97692.44;4956880;29;20470;-77
2023/11/03 04:25:21;;;;;;;3.35;0.90;;;;;;;7.98;90.86;97697.81;4940285;29;20116;-76
2023/11/03 04:27:46;;;;;;;2.53;1.10;;;;;;;8.00;91.21;97710.97;4972957;28;20019;-77
2023/11/03 04:30:12;;;;;;;3.08;1.05;;;;;;;8.02;91.06;97706.97;4975489;28;20122;-77
2023/11/03 04:32:37;;;;;;;;;;;;;;;7.92;91.49;97712.25;4976725;28;20387;-75
2023/11/03 04:35:02;;;;;;;2.90;0.90;;;;;;;7.96;91.26;97707.97;4975200;28;19917;-75
2023/11/03 04:37:31;;;;;;;4.15;1.05;;;;;;;8.00;90.67;97711.75;4975802;28;20042;-75
2023/11/03 04:39:56;;;;;;;2.35;0.80;;;;;;;8.01;91.10;97713.38;4974959;28;20038;-76
2023/11/03 04:42:21;;;;;;;2.50;1.10;;;;;;;8.01;90.67;97732.13;4975147;28;20030;-76
2023/11/03 04:44:46;;;;;;;;;;;;;;;8.04;91.23;97712.88;4976396;28;20498;-76
2023/11/03 04:47:14;;;;;;;1.43;1.20;;;;;;;7.96;91.40;97728.59;4956200;28;19918;-76
2023/11/03 04:49:39;;;;;;;3.05;1.02;;;;;;;7.95;92.12;97727.00;4971589;28;20034;-76
2023/11/03 04:52:07;;;;;;;1.92;1.23;;;;;;;7.94;92.07;97720.84;4957860;28;20038;-76
2023/11/03 04:54:32;;;;;;;4.75;1.33;;;;;;;7.97;92.38;97709.59;4968723;28;20043;-75
2023/11/03 04:56:59;;;;;;;3.75;1.30;;;;;;;7.98;93.36;97729.16;4975657;28;20557;-75
2023/11/03 04:59:24;;;;;;;3.20;0.82;;;;;;;7.98;92.18;97718.44;4975562;28;20023;-75
2023/11/03 05:01:54;;;;;;;5.90;1.10;;;;;;;7.94;93.38;97736.91;4974355;28;20039;-74
2023/11/03 05:04:20;;;;;;;1.83;0.95;;;;;;;7.96;92.28;97724.03;4970050;28;20023;-75
2023/11/03 05:06:45;;;;;;;4.30;1.30;;;;;;;7.93;92.17;97724.59;4956904;28;20594;-75
2023/11/03 05:09:10;;;;;;;;;;;;;;;7.95;91.58;97721.63;4971370;28;20031;-75
2023/11/03 05:11:36;;;;;;;3.10;1.25;;;;;;;7.93;91.82;97740.66;4975689;28;20279;-75
2023/11/03 05:14:01;;;;;;;;;;;;;;;7.94;91.63;97722.69;4957857;28;20030;-75
2023/11/03 05:16:26;;;;;;;0.97;0.80;;;;;;;7.96;91.74;97724.03;4973054;28;19926;-75
2023/11/03 05:18:56;;;;;;;3.05;1.15;;;;;;;7.89;92.28;97729.63;4974012;28;20033;-74
2023/11/03 05:21:24;;;;;;;1.63;0.90;;;;;;;7.92;92.07;97712.25;4970786;28;20034;-75
2023/11/03 05:23:59;;;;;;;2.03;1.30;;;;;;;7.88;92.14;97727.22;4973614;28;20038;-75
2023/11/03 05:26:30;;;;;;;3.90;1.45;;;;;;;7.85;92.25;97717.81;4956896;23;20056;-75
2023/11/03 05:28:57;;;;;;;3.03;1.10;;;;;;;7.84;91.97;97724.25;4933862;29;20476;-75
2023/11/03 05:31:23;;;;;;;4.55;1.27;;;;;;;7.86;92.24;97703.34;4918843;29;20032;-75
2023/11/03 05:33:49;;;;;;;4.50;1.50;;;;;;;7.93;92.05;97721.91;4947242;23;20054;-75
2023/11/03 05:36:15;;;;;;;2.10;1.17;;;;;;;7.88;92.17;97677.13;4952149;29;20023;-75
2023/11/03 05:38:43;;;;;;;5.35;1.40;;;;;;;7.81;94.05;97753.41;4953418;29;20042;-75
2023/11/03 05:41:09;;;;;;;6.05;1.48;;;;;;;7.82;93.96;97737.09;4954446;29;20058;-75
2023/11/03 05:43:34;;;;;;;4.35;1.40;;;;;;;7.84;94.01;97734.13;4920785;29;20053;-75
2023/11/03 05:46:00;;;;;;;3.15;1.50;;;;;;;7.68;95.09;97760.78;4947006;28;20059;-75
2023/11/03 05:48:25;;;;;;;;;;;;;;;7.67;96.20;97771.78;4955639;29;20439;-76
2023/11/03 05:50:56;;;;;;;2.70;1.30;;;;;;;7.68;96.38;97744.72;4949010;29;19923;-77
2023/11/03 05:53:21;;;;;;;4.63;1.17;;;;;;;7.61;96.95;97770.91;4951454;29;20472;-77
2023/11/03 05:55:47;;;;;;;;;;;;;;;7.57;97.80;97785.88;4954868;29;20049;-77
2023/11/03 05:58:15;;;;;;;4.82;1.40;;;;;;;7.48;99.02;97792.72;4953594;29;19922;-77
2023/11/03 06:00:40;;;;;;;3.85;1.20;;;;;;;7.56;99.67;97786.94;4954389;28;20051;-77
2023/11/03 06:03:06;;;;;;;;;;;;;;;7.58;99.63;97790.16;4954507;29;20456;-77
2023/11/03 06:05:31;;;;;;;4.30;1.37;;;;;;;7.51;99.30;97794.91;4954442;29;19925;-77
2023/11/03 06:07:56;;;;;;;;;;;;;;;7.48;100.00;97798.91;4956497;28;20807;-77
2023/11/03 06:10:22;;;;;;;5.70;1.60;;;;;;;7.42;100.00;97810.59;4954751;29;19922;-77
2023/11/03 06:12:47;;;;;;;;;;;;;;;7.51;100.00;97805.59;4941387;29;20078;-77
2023/11/03 06:15:13;;;;;;;3.28;1.00;;;;;;;7.45;100.00;97799.41;4940925;29;20287;-76
2023/11/03 06:17:39;;;;;;;3.90;1.48;;;;;;;7.42;100.00;97815.97;4939884;29;20054;-77
2023/11/03 06:20:05;;;;;;;;;;;;;;;7.51;100.00;97811.75;4935042;29;20067;-76
2023/11/03 06:22:31;;;;;;;2.72;1.30;;;;;;;7.53;99.99;97816.88;4935330;29;19914;-77
2023/11/03 06:24:56;;;;;;;;;;;;;;;7.52;99.83;97831.31;4936942;29;20086;-77
2023/11/03 06:27:22;;;;;;;3.70;1.48;;;;;;;7.54;100.00;97824.66;4939451;29;19989;-76
2023/11/03 06:29:49;;;;;;;;;;;;;;;7.55;100.00;97853.03;4955513;29;20033;-77
2023/11/03 06:32:14;;;;;;;2.38;1.15;;;;;;;7.58;99.79;97820.41;4955832;29;20386;-77
2023/11/03 06:34:39;;;;;;;1.65;1.13;;;;;;;7.62;99.23;97852.81;4954204;29;20039;-77
2023/11/03 06:37:05;;;;;;;;;;;;;;;7.65;100.00;97867.59;4955706;29;20023;-78
2023/11/03 06:39:30;;;;;;;2.78;0.82;;;;;;;7.61;100.00;97835.16;4953458;29;19918;-77
2023/11/03 06:41:56;;;;;;;;;;;;;;;7.63;98.91;97864.38;4948028;29;20110;-77
2023/11/03 06:44:24;;;;;;;4.45;1.30;;;;;;;7.60;99.67;97857.63;4956572;28;20260;-77
2023/11/03 06:46:49;;;;;;;4.40;1.30;;;;;;;7.63;99.45;97875.06;4953476;29;20071;-78
2023/11/03 06:49:15;;;;;;;;;;;;;;;7.63;100.00;97888.47;4954426;29;20039;-78
2023/11/03 06:51:43;;;;;;;3.50;1.27;;;;;;;7.66;98.99;97891.44;4953729;29;19930;-77
2023/11/03 06:54:09;;;;;;;4.85;1.75;;;;;;;7.71;99.64;97899.53;4951673;29;20028;-78
2023/11/03 06:56:40;;;;;;;;;;;;;;;7.77;98.86;97894.22;4946171;29;20078;-77
2023/11/03 06:59:07;;;;;;;3.60;1.30;;;;;;;7.73;98.60;97908.13;4953518;29;20272;-77
2023/11/03 07:01:34;;;;;;;6.22;1.50;;;;;;;7.69;98.96;97925.75;4954488;29;20031;-78
2023/11/03 07:03:59;;;;;;;3.97;1.52;;;;;;;7.73;98.34;97934.91;4935975;29;20091;-78
2023/11/03 07:06:25;;;;;;;4.18;1.50;;;;;;;7.69;99.37;97939.13;4938692;29;20027;-78
2023/11/03 07:08:50;;;;;;;;;;;;;;;7.81;98.32;97927.47;4948217;29;20031;-77
2023/11/03 07:11:19;;;;;;;2.93;1.10;;;;;;;7.82;97.23;97929.91;4952037;29;19922;-77
2023/11/03 07:13:53;;;;;;;3.90;1.33;;;;;;;7.76;97.59;97925.53;4949236;29;20031;-78
2023/11/03 07:16:18;;;;;;;8.10;1.40;;;;;;;7.78;97.57;97931.47;4953989;28;20035;-77
2023/11/03 07:18:44;;;;;;;3.20;1.17;;;;;;;7.82;97.73;97929.09;4936040;29;20335;-78
2023/11/03 07:21:12;;;;;;;;;;;;;;;7.96;96.66;97938.34;4951234;29;20086;-78
2023/11/03 07:23:38;;;;;;;3.58;1.40;;;;;;;7.84;97.35;97940.34;4948385;29;19965;-78
2023/11/03 07:26:03;;;;;;;5.18;1.60;;;;;;;7.86;97.67;97936.34;4952452;29;20106;-77
2023/11/03 07:28:31;;;;;;;;;;;;;;;7.95;96.53;97946.63;4952612;29;20027;-80
2023/11/03 07:30:58;;;;;;;4.80;1.20;;;;;;;8.05;96.59;97949.41;4951556;29;19918;-80
2023/11/03 07:43:54;;;;;;;3.65;1.17;;;;;;;8.16;95.41;97935.06;4909861;29;20064;-84
2023/11/03 07:49:10;;;;;;;4.15;1.30;;;;;;;8.39;94.46;97954.56;5044214;23;20060;-81
2023/11/03 07:51:39;;;;;;;4.68;1.45;;;;;;;8.39;95.35;97964.50;4912064;29;20028;-83
2023/11/03 07:54:05;;;;;;;4.45;1.60;;;;;;;8.32;94.88;97952.09;4898530;29;20087;-81
2023/11/03 07:56:31;;;;;;;6.22;1.60;;;;;;;8.30;94.96;97953.41;4911924;29;20050;-79
2023/11/03 07:58:56;;;;;;;5.50;1.15;;;;;;;8.12;97.00;97959.97;4915400;29;20028;-80
2023/11/03 08:01:21;;;;;;;;;;;;;;;8.12;97.47;97963.44;4915806;29;20028;-80
2023/11/03 08:03:47;;;;;;;2.47;1.03;;;;;;;8.07;97.90;97965.25;4915480;29;19946;-79
2023/11/03 08:06:12;;;;;;;3.95;1.50;;;;;;;7.95;98.90;97971.53;4917392;29;20040;-80
2023/11/03 08:12:02;;;;;;;7.85;1.40;;;;;;;8.13;98.96;97964.22;5075440;23;20481;-79
2023/11/03 08:18:01;;;;;;;9.98;1.52;;;;;;;8.46;95.73;97957.84;5268569;23;20012;-80
2023/11/03 08:21:04;;;;;;;3.67;1.30;;;;;;;8.63;93.94;97965.81;4964699;28;20163;-80
2023/11/03 08:24:13;;;;;;;5.55;1.58;;;;;;;8.66;94.21;97969.84;4964573;28;20448;-82
2023/11/03 08:27:31;;;;;;;4.60;1.40;;;;;;;8.84;93.22;97978.56;5006634;23;20526;-79
2023/11/03 08:30:25;;;;;;;3.85;1.35;;;;;;;8.91;92.12;97973.81;4965081;28;20031;-81
2023/11/03 08:33:06;;;;;;;2.95;1.20;;;;;;;9.14;90.68;97972.63;4951778;28;20031;-80
2023/11/03 08:35:32;;;;;;;5.25;1.27;;;;;;;9.14;90.69;97986.03;4995450;23;20051;-80
2023/11/03 08:37:57;;;;;;;6.57;1.38;;;;;;;9.13;90.44;97983.59;4949374;28;20085;-79
2023/11/03 08:40:24;;;;;;;7.38;1.58;;;;;;;9.19;89.69;97980.69;4953449;28;20035;-80
2023/11/03 08:42:49;;;;;;;5.47;1.35;;;;;;;9.47;88.52;97975.19;4961852;28;20421;-80
2023/11/03 08:45:21;;;;;;;4.95;1.67;;;;;;;9.45;88.62;97988.91;4956670;28;20043;-80
2023/11/03 08:47:46;;;;;;;3.38;1.42;;;;;;;9.29;88.60;97987.19;4945422;28;20023;-79
2023/11/03 08:50:17;;;;;;;6.35;1.63;;;;;;;9.40;87.72;97978.94;4949983;28;20054;-83
2023/11/03 08:55:08;;;;;;;7.70;1.20;;;;;;;9.53;88.79;97976.84;5458652;23;20055;-79
2023/11/03 08:57:35;;;;;;;4.03;1.30;;;;;;;9.46;88.10;97969.03;4951619;28;20043;-79
2023/11/03 09:00:03;;;;;;;5.07;1.40;;;;;;;9.83;86.89;97981.56;4968027;28;20035;-80
2023/11/03 09:02:35;;;;;;;4.68;1.42;;;;;;;9.82;86.95;97990.69;4961100;28;20089;-79
2023/11/03 09:05:02;;;;;;;9.20;1.75;;;;;;;10.01;86.23;97995.59;4960377;28;20569;-79
2023/11/03 09:10:22;;;;;;;5.93;1.50;;;;;;;9.80;85.92;98010.81;5259960;23;20070;-80
2023/11/03 09:12:54;;;;;;;6.15;1.30;;;;;;;9.70;86.12;98009.69;4952690;28;20545;-80
2023/11/03 09:15:25;;;;;;;4.75;1.30;;;;;;;9.68;86.27;98016.41;4935139;29;20038;-80
2023/11/03 09:17:57;;;;;;;4.72;1.42;;;;;;;9.62;86.70;98018.25;4951917;28;20480;-80
2023/11/03 09:21:00;;;;;;;5.85;1.52;;;;;;;9.54;86.48;98029.50;4950579;28;20039;-79
2023/11/03 09:24:03;;;;;;;4.55;1.50;;;;;;;9.69;86.32;98034.16;4946920;28;20024;-78
2023/11/03 09:26:31;;;;;;;7.18;1.80;;;;;;;9.66;87.15;98045.41;4947662;28;20424;-79
2023/11/03 09:29:00;;;;;;;7.05;1.30;;;;;;;9.79;86.08;98052.19;5147263;23;20122;-78
2023/11/03 09:31:30;;;;;;;4.72;1.50;;;;;;;9.96;84.86;98065.44;4951075;28;20450;-78
2023/11/03 09:39:53;;;;;;;6.15;1.63;;;;;;;10.00;84.24;98085.34;5114736;23;20073;-78
2023/11/03 09:42:28;;;;;;;4.55;1.20;;;;;;;10.14;82.94;98077.63;4959633;28;20024;-79
2023/11/03 09:48:18;;;;;;;6.88;1.55;;;;;;;10.71;82.06;98100.16;4940298;28;20045;-79
2023/11/03 09:51:01;;;;;;;6.38;1.38;;;;;;;10.83;81.30;98101.78;4941717;28;20024;-78
2023/11/03 09:53:27;;;;;;;8.50;1.85;;;;;;;10.86;80.67;98091.28;4971118;28;20121;-78
2023/11/03 09:56:39;;;;;;;7.03;1.58;;;;;;;10.80;80.04;98100.44;4922850;28;20031;-78
2023/11/03 09:59:18;;;;;;;9.05;1.90;;;;;;;10.74;80.17;98093.41;4952059;28;20452;-78
2023/11/03 10:01:46;;;;;;;6.78;1.60;;;;;;;10.72;80.42;98109.84;5179270;23;20321;-78
2023/11/03 10:04:11;;;;;;;6.03;1.58;;;;;;;10.70;80.53;98117.38;5087427;23;20056;-79
2023/11/03 10:09:24;;;;;;;5.70;1.40;;;;;;;10.56;80.89;98118.94;5727529;23;20067;-79
2023/11/03 10:12:03;;;;;;;6.78;1.40;;;;;;;10.43;81.99;98126.41;4910533;29;20528;-78
2023/11/03 10:17:24;;;;;;;7.45;1.77;;;;;;;10.52;81.75;98139.38;4986356;23;20492;-78
2023/11/03 10:20:00;;;;;;;7.88;1.92;;;;;;;10.66;80.68;98145.88;5007219;23;20054;-79
2023/11/03 10:22:28;;;;;;;6.20;1.80;;;;;;;10.61;81.05;98143.97;5028161;23;20060;-78
2023/11/03 10:28:32;;;;;;;5.60;1.88;;;;;;;10.67;80.77;98133.22;4910197;29;20058;-79
2023/11/03 10:37:23;;;;;;;5.03;1.60;;;;;;;10.46;81.90;98152.78;4948823;28;20194;-78
2023/11/03 10:40:32;;;;;;;7.57;1.83;;;;;;;10.49;82.63;98153.34;4947985;28;20035;-79
2023/11/03 10:43:32;;;;;;;8.40;1.80;;;;;;;10.45;82.12;98156.53;4949530;28;20582;-79
2023/11/03 10:50:05;;;;;;;5.35;1.88;;;;;;;10.79;80.69;98151.81;5109249;23;20061;-78
2023/11/03 10:53:14;;;;;;;5.80;1.83;;;;;;;10.79;80.53;98160.72;4974188;28;20086;-77
2023/11/03 10:58:15;;;;;;;8.45;1.98;;;;;;;10.71;80.10;98174.66;5254838;23;20051;-79
2023/11/03 11:01:33;;;;;;;5.97;2.00;;;;;;;10.53;81.63;98173.25;5038578;23;20034;-78
2023/11/03 11:04:28;;;;;;;6.50;2.10;;;;;;;10.80;80.19;98170.41;4954504;28;20035;-79
2023/11/03 11:06:56;;;;;;;5.90;1.42;;;;;;;10.95;80.05;98174.19;4952957;28;20142;-79
2023/11/03 11:09:55;;;;;;;10.18;2.08;;;;;;;11.30;78.07;98175.34;4936418;28;20122;-78
2023/11/03 11:12:20;;;;;;;6.05;1.70;;;;;;;11.57;76.73;98174.25;5476652;23;20506;-79
2023/11/03 11:14:48;;;;;;;5.80;1.60;;;;;;;11.86;75.80;98182.59;4950317;28;20122;-80
2023/11/03 11:17:38;;;;;;;5.95;1.85;;;;;;;11.96;73.45;98177.22;4932608;29;20046;-80
2023/11/03 11:20:04;;;;;;;6.35;1.50;;;;;;;11.94;73.76;98184.75;4952155;28;20175;-79
2023/11/03 11:22:30;;;;;;;8.60;2.13;;;;;;;11.94;74.32;98195.53;4951387;28;20479;-79
2023/11/03 11:25:01;;;;;;;7.55;1.92;;;;;;;12.03;73.14;98186.91;4947764;28;20031;-80
2023/11/03 11:27:35;;;;;;;8.15;1.90;;;;;;;12.37;71.53;98187.13;4944383;28;20699;-81
2023/11/03 11:37:29;;;;;;;5.88;1.70;;;;;;;13.15;68.51;98194.84;4890634;29;20543;-80
2023/11/03 11:40:25;;;;;;;9.10;1.80;;;;;;;13.49;66.60;98189.53;4855338;29;20072;-78
2023/11/03 11:51:25;;;;;;;8.60;2.25;;;;;;;12.74;67.75;98212.06;6047448;23;20037;-78
2023/11/03 11:57:31;;;;;;;8.77;2.05;;;;;;;12.98;67.95;98208.72;4952169;28;20073;-77
2023/11/03 12:09:00;;;;;;;9.80;1.75;;;;;;;15.65;60.08;98219.00;4955835;28;20042;-79
2023/11/03 12:12:33;;;;;;;6.82;1.83;;;;;;;16.83;54.08;98227.75;4963346;28;20038;-80
2023/11/03 12:15:04;;;;;;;8.57;2.30;;;;;;;15.74;55.36;98204.47;4893028;29;20060;-79
2023/11/03 12:17:39;;;;;;;9.35;2.45;;;;;;;14.18;59.42;98223.81;4893301;29;20047;-79
2023/11/03 12:23:34;;;;;;;7.95;1.70;;;;;;;14.75;58.25;98227.84;4923075;29;20592;-79
2023/11/03 12:30:04;;;;;;;3.60;1.50;;;;;;;14.42;58.40;98224.94;4955243;28;20074;-78
2023/11/03 12:32:59;;;;;;;4.70;1.70;;;;;;;14.55;58.12;98233.19;4949546;28;20039;-79
2023/11/03 12:39:03;;;;;;;3.88;1.40;;;;;;;15.47;55.25;98237.72;4950113;28;20484;-78
2023/11/03 12:42:26;;;;;;;6.90;1.90;;;;;;;14.74;57.05;98247.88;4932213;28;20109;-78
2023/11/03 12:45:05;;;;;;;9.40;2.53;;;;;;;14.15;61.02;98258.75;4972495;28;20035;-79
2023/11/03 12:47:53;;;;;;;9.05;1.90;;;;;;;14.67;59.62;98259.03;4933270;28;20055;-79
2023/11/03 12:50:20;;;;;;;7.75;1.60;;;;;;;15.67;56.60;98247.44;4973196;28;20146;-79
2023/11/03 12:53:17;;;;;;;5.05;1.48;;;;;;;16.25;54.64;98255.47;4955976;28;20133;-79
2023/11/03 12:59:07;;;;;;;5.72;1.40;;;;;;;15.79;54.22;98254.34;4967359;28;20493;-79
2023/11/03 13:05:02;;;;;;;6.15;1.50;;;;;;;15.23;56.61;98273.03;4956762;28;20094;-80
2023/11/03 13:08:05;;;;;;;9.95;1.60;;;;;;;14.29;59.69;98270.53;4966378;28;20464;-79
2023/11/03 13:10:59;;;;;;;7.72;1.70;;;;;;;13.14;63.17;98258.88;4947502;28;20031;-79
2023/11/03 13:13:30;;;;;;;5.97;1.65;;;;;;;12.46;66.13;98257.50;4966232;28;20073;-79
2023/11/03 13:16:10;;;;;;;6.13;1.70;;;;;;;12.01;68.76;98269.97;4958895;28;20027;-79
2023/11/03 13:19:01;;;;;;;9.40;1.88;;;;;;;12.20;69.83;98273.72;4935872;28;20078;-80
2023/11/03 13:21:31;;;;;;;9.50;2.08;;;;;;;12.30;68.71;98274.81;4967442;28;20262;-78
2023/11/03 13:26:51;;;;;;;8.10;2.03;;;;;;;11.65;71.49;98259.97;4937378;28;20039;-78
2023/11/03 13:29:35;;;;;;;9.10;2.10;;;;;;;11.91;71.27;98276.97;4962931;28;20038;-78
2023/11/03 13:32:00;;;;;;;6.25;1.70;;;;;;;11.88;71.87;98280.19;4971465;28;20023;-78
2023/11/03 13:34:29;;;;;;;11.48;2.88;;;;;;;12.04;69.91;98272.13;4960928;28;20109;-78
2023/11/03 13:37:00;;;;;;;7.70;2.03;;;;;;;12.09;69.49;98272.91;4959986;28;20035;-78
2023/11/03 13:39:33;;;;;;;9.65;1.98;;;;;;;12.19;70.45;98276.72;4960755;28;20090;-78
2023/11/03 13:42:07;;;;;;;11.90;1.80;;;;;;;12.10;70.32;98271.06;4972760;28;20019;-78
2023/11/03 13:44:39;;;;;;;9.02;2.05;;;;;;;11.92;71.32;98288.53;4972113;28;20403;-78
2023/11/03 13:47:04;;;;;;;8.38;2.08;;;;;;;11.63;72.01;98281.81;4961743;28;20115;-78
2023/11/03 13:49:30;;;;;;;8.07;2.03;;;;;;;11.41;72.51;98278.50;4952350;28;20102;-78
2023/11/03 13:52:19;;;;;;;9.38;2.05;;;;;;;11.37;73.10;98287.13;4958835;28;20377;-78